Time;durP1;ratioP1;P1;durP2;ratioP2;P2;SDS_P1;SDS_P2;PMS_P1;PMS_P2;Temp;Humidity;BMP_temperature;BMP_pressure;BME280_temperature;BME280_humidity;BME280_pressure;Samples;Min_cycle;Max_cycle;Signal;HPM_P1;HPM_P2
2024/02/13 09:07:06;;;;;;;2.20;1.30;;;;;;;;;;4975708;27;80670;-54
2024/02/13 09:09:32;;;;;;;2.08;0.65;;;;;;;;;;4971201;28;80700;-55
2024/02/13 09:11:58;;;;;;;0.63;0.55;;;;;;;;;;4967792;28;82053;-55
2024/02/13 09:14:23;;;;;;;0.15;0.15;;;;;;;;;;4966799;28;82138;-53
2024/02/13 09:16:48;;;;;;;0.15;0.15;;;;;;;;;;4969806;28;80837;-55
2024/02/13 09:19:13;;;;;;;6.40;0.60;;;;;;;;;;4990691;28;81133;-54
2024/02/13 09:21:40;;;;;;;2.17;0.33;;;;;;;;;;4993100;28;81104;-54
2024/02/13 09:24:05;;;;;;;0.40;0.10;;;;;;;;;;4993760;28;81193;-56
2024/02/13 09:26:30;;;;;;;0.00;0.00;;;;;;;;;;4993693;28;81155;-51
2024/02/13 09:28:57;;;;;;;0.10;0.10;;;;;;;;;;4991858;28;81022;-54
2024/02/13 09:31:22;;;;;;;0.00;0.00;;;;;;;;;;4990843;28;81305;-54
2024/02/13 09:33:47;;;;;;;0.20;0.20;;;;;;;;;;4991256;28;81009;-52
2024/02/13 09:36:14;;;;;;;0.13;0.13;;;;;;;;;;4991459;28;81159;-54
2024/02/13 09:38:40;;;;;;;0.10;0.10;;;;;;;;;;4991087;28;80381;-56
2024/02/13 09:41:05;;;;;;;2.77;0.57;;;;;;;;;;4985182;28;81444;-55
2024/02/13 09:43:31;;;;;;;0.00;0.00;;;;;;;;;;4986199;28;82314;-54
2024/02/13 09:45:56;;;;;;;0.90;0.40;;;;;;;;;;4992529;28;80673;-52
2024/02/13 09:48:25;;;;;;;0.60;0.20;;;;;;;;;;4995192;28;81811;-55
2024/02/13 09:50:51;;;;;;;0.50;0.10;;;;;;;;;;4991580;28;80791;-56
2024/02/13 09:53:18;;;;;;;0.10;0.10;;;;;;;;;;4991919;28;80895;-55
2024/02/13 09:55:44;;;;;;;0.90;0.20;;;;;;;;;;4993330;28;81480;-54
2024/02/13 09:58:10;;;;;;;0.32;0.32;;;;;;;;;;4990360;28;81261;-56
2024/02/13 10:00:35;;;;;;;0.10;0.00;;;;;;;;;;4989807;28;80862;-55
2024/02/13 10:03:02;;;;;;;0.10;0.10;;;;;;;;;;4972472;28;83481;-54
2024/02/13 10:05:27;;;;;;;0.15;0.15;;;;;;;;;;4992701;28;82065;-52
2024/02/13 10:07:52;;;;;;;0.10;0.10;;;;;;;;;;4989493;28;80977;-55
2024/02/13 10:10:18;;;;;;;0.10;0.10;;;;;;;;;;4990625;28;81294;-52
2024/02/13 10:12:49;;;;;;;0.30;0.10;;;;;;;;;;4990163;28;81814;-53
2024/02/13 10:15:15;;;;;;;0.00;0.00;;;;;;;;;;4992576;28;81351;-53
2024/02/13 10:17:44;;;;;;;7.30;0.20;;;;;;;;;;4979670;28;80600;-53
2024/02/13 10:20:11;;;;;;;0.10;0.00;;;;;;;;;;4975668;28;80779;-55
2024/02/13 10:22:47;;;;;;;0.10;0.10;;;;;;;;;;4978879;28;80673;-54
2024/02/13 10:25:12;;;;;;;0.23;0.23;;;;;;;;;;4976577;28;80869;-54
2024/02/13 10:27:37;;;;;;;0.00;0.00;;;;;;;;;;4978559;28;80555;-53
2024/02/13 10:30:06;;;;;;;0.00;0.00;;;;;;;;;;4977893;28;80943;-53
2024/02/13 10:32:34;;;;;;;0.10;0.10;;;;;;;;;;4981101;28;80705;-55
2024/02/13 10:35:04;;;;;;;1.88;0.35;;;;;;;;;;4979701;28;80597;-56
2024/02/13 10:37:30;;;;;;;2.07;0.90;;;;;;;;;;4979683;28;80771;-55
2024/02/13 10:39:57;;;;;;;64.45;30.45;;;;;;;;;;4978688;28;80538;-54
2024/02/13 10:42:25;;;;;;;67.33;28.87;;;;;;;;;;4975905;28;83212;-53
2024/02/13 10:44:52;;;;;;;47.00;25.30;;;;;;;;;;4976515;28;83400;-54
2024/02/13 10:47:18;;;;;;;56.70;22.90;;;;;;;;;;4975422;28;83083;-56
2024/02/13 10:49:50;;;;;;;47.20;22.02;;;;;;;;;;4977106;28;85308;-50
2024/02/13 10:52:16;;;;;;;43.60;18.48;;;;;;;;;;4978043;28;82836;-55
2024/02/13 10:54:46;;;;;;;30.10;17.90;;;;;;;;;;4980573;28;83668;-54
2024/02/13 10:57:12;;;;;;;28.25;16.40;;;;;;;;;;4975071;28;83169;-54
2024/02/13 10:59:39;;;;;;;17.98;13.30;;;;;;;;;;4974960;28;84398;-51
2024/02/13 11:02:06;;;;;;;33.85;15.23;;;;;;;;;;4977456;28;83711;-53
2024/02/13 11:04:33;;;;;;;17.48;11.18;;;;;;;;;;4974465;28;83731;-54
2024/02/13 11:06:58;;;;;;;37.20;11.67;;;;;;;;;;4975838;28;83109;-53
2024/02/13 11:09:25;;;;;;;12.60;9.50;;;;;;;;;;4972595;28;83665;-55
2024/02/13 11:11:51;;;;;;;14.57;8.23;;;;;;;;;;4974613;28;80876;-53
2024/02/13 11:14:17;;;;;;;19.40;8.57;;;;;;;;;;4975823;28;81805;-51
2024/02/13 11:16:56;;;;;;;27.58;8.55;;;;;;;;;;4981251;28;80454;-56
2024/02/13 11:19:22;;;;;;;12.68;7.18;;;;;;;;;;4978517;28;81030;-54
2024/02/13 11:21:51;;;;;;;19.80;8.13;;;;;;;;;;4977611;28;82055;-52
2024/02/13 11:24:20;;;;;;;7.40;6.68;;;;;;;;;;4976218;28;81165;-54
2024/02/13 11:26:46;;;;;;;14.88;6.78;;;;;;;;;;4976060;28;80685;-55
2024/02/13 11:29:12;;;;;;;10.43;5.80;;;;;;;;;;4977472;28;81654;-56
2024/02/13 11:31:38;;;;;;;12.87;6.30;;;;;;;;;;4977269;28;81580;-58
2024/02/13 11:34:09;;;;;;;10.83;6.90;;;;;;;;;;4977682;28;80887;-51
2024/02/13 11:36:35;;;;;;;12.23;6.13;;;;;;;;;;4976761;28;80755;-55
2024/02/13 11:39:06;;;;;;;10.50;5.15;;;;;;;;;;4976248;28;80846;-54
2024/02/13 11:41:33;;;;;;;6.82;5.10;;;;;;;;;;4972478;28;81237;-52
2024/02/13 11:44:07;;;;;;;5.43;4.93;;;;;;;;;;4977226;28;81308;-57
2024/02/13 11:46:33;;;;;;;12.32;5.30;;;;;;;;;;4976824;28;81051;-54
2024/02/13 11:48:58;;;;;;;13.35;5.40;;;;;;;;;;4975553;28;81231;-57
2024/02/13 11:51:24;;;;;;;7.60;4.07;;;;;;;;;;4975413;28;80534;-54
2024/02/13 11:53:49;;;;;;;3.43;3.13;;;;;;;;;;4974852;28;80533;-55
2024/02/13 11:56:15;;;;;;;9.97;4.50;;;;;;;;;;4977871;28;81468;-58
2024/02/13 11:58:40;;;;;;;10.10;5.28;;;;;;;;;;4978611;28;81162;-55
2024/02/13 12:01:06;;;;;;;9.60;3.43;;;;;;;;;;4976411;28;80936;-55
2024/02/13 12:03:32;;;;;;;12.63;5.53;;;;;;;;;;4975289;28;81189;-53
2024/02/13 12:05:59;;;;;;;6.78;2.28;;;;;;;;;;4978327;28;80887;-54
2024/02/13 12:08:24;;;;;;;5.82;3.45;;;;;;;;;;4977176;28;82066;-53
2024/02/13 12:10:50;;;;;;;6.40;4.97;;;;;;;;;;4974080;28;80635;-56
2024/02/13 12:13:18;;;;;;;12.57;3.63;;;;;;;;;;4977080;28;80817;-54
2024/02/13 12:15:44;;;;;;;12.07;4.30;;;;;;;;;;4972362;28;81410;-57
2024/02/13 12:18:11;;;;;;;11.25;3.85;;;;;;;;;;4975195;28;81005;-52
2024/02/13 12:20:37;;;;;;;3.58;2.83;;;;;;;;;;4979615;28;80821;-51
2024/02/13 12:23:06;;;;;;;7.93;2.23;;;;;;;;;;4974238;28;81343;-53
2024/02/13 12:25:31;;;;;;;3.55;2.58;;;;;;;;;;4975289;28;81049;-57
2024/02/13 12:28:00;;;;;;;3.00;2.70;;;;;;;;;;4974874;28;81308;-55
2024/02/13 12:30:26;;;;;;;5.38;3.22;;;;;;;;;;4976012;28;80778;-54
2024/02/13 12:32:51;;;;;;;11.37;3.53;;;;;;;;;;4976932;28;80728;-53
2024/02/13 12:35:25;;;;;;;3.10;2.43;;;;;;;;;;4978456;28;81167;-53
2024/02/13 12:37:54;;;;;;;4.40;3.20;;;;;;;;;;4967056;28;82364;-54
2024/02/13 12:40:20;;;;;;;5.80;2.08;;;;;;;;;;4976262;28;81395;-52
2024/02/13 12:42:45;;;;;;;4.13;3.67;;;;;;;;;;4978688;28;82083;-50
2024/02/13 12:45:10;;;;;;;5.00;3.00;;;;;;;;;;4975654;28;81539;-57
2024/02/13 12:47:36;;;;;;;2.17;1.83;;;;;;;;;;4973368;28;81243;-52
2024/02/13 12:50:02;;;;;;;6.68;3.22;;;;;;;;;;4977373;28;80588;-56
2024/02/13 12:52:29;;;;;;;4.20;2.80;;;;;;;;;;4974284;28;80958;-55
2024/02/13 12:54:56;;;;;;;4.82;2.55;;;;;;;;;;4974776;28;81381;-57
2024/02/13 12:57:22;;;;;;;10.53;3.30;;;;;;;;;;4971441;28;80868;-57
2024/02/13 12:59:48;;;;;;;9.55;3.15;;;;;;;;;;4974393;28;81363;-58
2024/02/13 13:02:16;;;;;;;7.40;2.15;;;;;;;;;;4975419;28;81074;-58
2024/02/13 13:04:41;;;;;;;4.80;1.67;;;;;;;;;;4978954;28;81617;-55
2024/02/13 13:07:06;;;;;;;1.00;1.00;;;;;;;;;;4976804;28;81203;-55
2024/02/13 13:09:31;;;;;;;4.40;1.63;;;;;;;;;;4971825;28;81061;-57
2024/02/13 13:11:57;;;;;;;1.80;1.17;;;;;;;;;;4972930;28;83002;-57
2024/02/13 13:14:23;;;;;;;4.73;1.47;;;;;;;;;;4975407;28;81456;-57
2024/02/13 13:16:48;;;;;;;2.28;1.08;;;;;;;;;;4974175;28;82791;-57
2024/02/13 13:19:14;;;;;;;1.40;0.97;;;;;;;;;;4974550;28;83275;-57
2024/02/13 13:21:40;;;;;;;2.88;1.63;;;;;;;;;;4970385;28;83619;-57
2024/02/13 13:24:08;;;;;;;1.25;1.20;;;;;;;;;;4977037;28;82174;-58
2024/02/13 13:26:34;;;;;;;2.03;1.47;;;;;;;;;;4971098;28;82440;-55
2024/02/13 13:29:03;;;;;;;3.10;1.57;;;;;;;;;;4976148;28;82921;-57
2024/02/13 13:31:32;;;;;;;0.93;0.93;;;;;;;;;;4971314;28;82391;-56
2024/02/13 13:34:05;;;;;;;1.50;1.05;;;;;;;;;;4972202;28;82190;-56
2024/02/13 13:36:34;;;;;;;6.63;1.20;;;;;;;;;;4972206;28;82144;-56
2024/02/13 13:38:59;;;;;;;0.82;0.55;;;;;;;;;;4976170;28;81299;-55
2024/02/13 13:41:25;;;;;;;4.67;1.73;;;;;;;;;;4973626;28;82291;-56
2024/02/13 13:43:51;;;;;;;2.08;0.98;;;;;;;;;;4970123;28;82594;-55
2024/02/13 13:46:16;;;;;;;1.80;1.70;;;;;;;;;;4976475;28;83679;-56
2024/02/13 13:48:42;;;;;;;6.03;1.40;;;;;;;;;;4972787;28;83253;-56
2024/02/13 13:51:08;;;;;;;1.70;0.50;;;;;;;;;;4974133;28;82303;-58
2024/02/13 13:53:35;;;;;;;2.10;1.10;;;;;;;;;;4971162;28;83018;-54
2024/02/13 13:56:00;;;;;;;5.60;1.03;;;;;;;;;;4977584;28;82030;-58
2024/02/13 13:58:25;;;;;;;3.80;0.70;;;;;;;;;;4974010;28;82385;-56
2024/02/13 14:00:50;;;;;;;0.73;0.70;;;;;;;;;;4977759;28;82440;-60
2024/02/13 14:03:17;;;;;;;1.55;1.08;;;;;;;;;;4978401;28;82352;-55
2024/02/13 14:05:44;;;;;;;0.60;0.60;;;;;;;;;;4976815;28;82056;-58
2024/02/13 14:08:09;;;;;;;1.00;0.80;;;;;;;;;;4980914;28;82655;-56
2024/02/13 14:10:34;;;;;;;1.30;1.20;;;;;;;;;;4976497;28;83249;-59
2024/02/13 14:13:00;;;;;;;1.10;0.70;;;;;;;;;;4977208;28;81903;-56
2024/02/13 14:15:29;;;;;;;1.45;0.80;;;;;;;;;;4977528;28;82609;-56
2024/02/13 14:18:00;;;;;;;0.80;0.80;;;;;;;;;;4975484;28;82354;-56
2024/02/13 14:20:31;;;;;;;0.70;0.40;;;;;;;;;;4978173;28;82081;-58
2024/02/13 14:22:57;;;;;;;1.50;0.60;;;;;;;;;;4975558;28;83031;-56
2024/02/13 14:25:25;;;;;;;0.60;0.60;;;;;;;;;;4977209;28;82123;-59
2024/02/13 14:27:52;;;;;;;0.93;0.45;;;;;;;;;;4977416;28;81453;-58
2024/02/13 14:30:19;;;;;;;1.10;1.00;;;;;;;;;;4980271;28;82166;-56
2024/02/13 14:32:44;;;;;;;5.50;1.38;;;;;;;;;;4975204;28;82701;-59
2024/02/13 14:35:10;;;;;;;0.43;0.43;;;;;;;;;;4978491;28;83889;-56
2024/02/13 14:37:36;;;;;;;1.42;0.93;;;;;;;;;;4972354;28;83151;-56
2024/02/13 14:40:03;;;;;;;1.95;0.70;;;;;;;;;;4977231;28;82540;-56
2024/02/13 14:42:29;;;;;;;0.47;0.47;;;;;;;;;;4976309;28;82261;-56
2024/02/13 14:44:54;;;;;;;0.75;0.68;;;;;;;;;;4978015;28;82593;-57
2024/02/13 14:47:21;;;;;;;0.67;0.40;;;;;;;;;;4977689;28;82367;-58
2024/02/13 14:49:46;;;;;;;0.52;0.52;;;;;;;;;;4977787;28;82505;-59
2024/02/13 14:52:12;;;;;;;0.40;0.40;;;;;;;;;;4971387;28;82212;-57
2024/02/13 14:54:41;;;;;;;1.80;1.03;;;;;;;;;;4977903;28;82060;-58
2024/02/13 14:57:11;;;;;;;0.38;0.38;;;;;;;;;;4976715;28;82422;-58
2024/02/13 14:59:37;;;;;;;2.80;0.77;;;;;;;;;;4971323;28;86025;-59
2024/02/13 15:02:04;;;;;;;1.97;0.53;;;;;;;;;;4975911;28;83020;-58
2024/02/13 15:04:29;;;;;;;0.75;0.55;;;;;;;;;;4974973;28;82838;-58
2024/02/13 15:06:54;;;;;;;1.03;0.70;;;;;;;;;;4976065;28;82626;-59
2024/02/13 15:09:27;;;;;;;1.50;0.90;;;;;;;;;;4970859;28;84167;-59
2024/02/13 15:11:53;;;;;;;2.20;0.63;;;;;;;;;;4977420;28;82702;-56
2024/02/13 15:14:18;;;;;;;0.25;0.25;;;;;;;;;;4981850;28;81924;-56
2024/02/13 15:16:45;;;;;;;0.80;0.30;;;;;;;;;;4980718;28;81273;-57
2024/02/13 15:19:11;;;;;;;0.80;0.60;;;;;;;;;;4976276;28;82029;-57
2024/02/13 15:21:37;;;;;;;0.40;0.40;;;;;;;;;;4978911;28;82160;-58
2024/02/13 15:24:04;;;;;;;3.45;0.22;;;;;;;;;;4976151;28;82851;-59
2024/02/13 15:26:30;;;;;;;0.30;0.30;;;;;;;;;;4975243;28;82735;-59
2024/02/13 15:28:55;;;;;;;0.40;0.40;;;;;;;;;;4970825;28;83566;-58
2024/02/13 15:31:22;;;;;;;0.27;0.27;;;;;;;;;;4973959;28;83162;-58
2024/02/13 15:33:48;;;;;;;0.40;0.40;;;;;;;;;;4981269;28;81908;-58
2024/02/13 15:36:32;;;;;;;0.80;0.38;;;;;;;;;;4979857;28;82468;-58
2024/02/13 15:47:13;;;;;;;0.80;0.60;;;;;;;;;;4978748;28;82219;-58
2024/02/13 15:49:44;;;;;;;0.90;0.23;;;;;;;;;;4979127;28;83334;-56
2024/02/13 15:52:12;;;;;;;0.57;0.57;;;;;;;;;;4976057;28;82685;-59
2024/02/13 15:54:38;;;;;;;0.35;0.35;;;;;;;;;;4977158;28;82038;-59
2024/02/13 15:57:03;;;;;;;0.30;0.30;;;;;;;;;;4980227;28;83054;-59
2024/02/13 15:59:29;;;;;;;0.70;0.70;;;;;;;;;;4977667;28;82393;-59
2024/02/13 16:01:56;;;;;;;1.42;0.60;;;;;;;;;;4978299;28;82129;-58
2024/02/13 16:04:21;;;;;;;0.30;0.30;;;;;;;;;;4979571;28;82040;-58
2024/02/13 16:06:52;;;;;;;0.30;0.30;;;;;;;;;;4974106;28;81344;-57
2024/02/13 16:09:17;;;;;;;0.35;0.35;;;;;;;;;;4976573;28;82447;-59
2024/02/13 16:11:42;;;;;;;0.30;0.27;;;;;;;;;;4976888;28;82883;-57
2024/02/13 16:14:08;;;;;;;0.50;0.40;;;;;;;;;;4977309;28;83152;-59
2024/02/13 16:16:35;;;;;;;0.50;0.50;;;;;;;;;;4978083;28;83061;-58
2024/02/13 16:19:01;;;;;;;0.50;0.30;;;;;;;;;;4978296;28;82788;-56
2024/02/13 16:21:27;;;;;;;1.00;0.47;;;;;;;;;;4977103;28;83483;-58
2024/02/13 16:23:52;;;;;;;1.80;0.60;;;;;;;;;;4979113;28;82545;-55
2024/02/13 16:26:17;;;;;;;3.63;1.00;;;;;;;;;;4976798;28;82879;-57
2024/02/13 16:28:43;;;;;;;0.43;0.43;;;;;;;;;;4977130;28;82293;-56
2024/02/13 16:31:10;;;;;;;0.35;0.28;;;;;;;;;;4976273;28;81689;-56
2024/02/13 16:33:35;;;;;;;1.30;0.47;;;;;;;;;;4975810;28;84175;-59
2024/02/13 16:36:00;;;;;;;0.93;0.53;;;;;;;;;;4973704;28;83438;-57
2024/02/13 16:38:25;;;;;;;0.40;0.40;;;;;;;;;;4978293;28;82850;-54
2024/02/13 16:40:51;;;;;;;0.60;0.40;;;;;;;;;;4979564;28;82135;-58
2024/02/13 16:43:16;;;;;;;0.37;0.37;;;;;;;;;;4977990;28;83145;-56
2024/02/13 16:45:41;;;;;;;3.50;0.50;;;;;;;;;;4976883;28;82337;-54
2024/02/13 16:48:09;;;;;;;1.10;0.98;;;;;;;;;;4976960;28;82049;-56
2024/02/13 16:50:34;;;;;;;0.73;0.20;;;;;;;;;;4975382;28;82432;-56
2024/02/13 16:52:59;;;;;;;1.10;1.00;;;;;;;;;;4978330;28;82270;-57
2024/02/13 16:55:24;;;;;;;0.50;0.43;;;;;;;;;;4975375;28;81645;-57
2024/02/13 16:57:53;;;;;;;3.43;0.57;;;;;;;;;;4979072;28;82547;-55
2024/02/13 17:00:21;;;;;;;4.20;0.75;;;;;;;;;;4973100;28;82412;-60
2024/02/13 17:02:46;;;;;;;0.70;0.30;;;;;;;;;;4980356;28;83919;-57
2024/02/13 17:05:12;;;;;;;6.90;2.07;;;;;;;;;;4975782;28;82101;-57
2024/02/13 17:07:38;;;;;;;3.40;0.80;;;;;;;;;;4976428;28;82141;-55
2024/02/13 17:10:03;;;;;;;0.50;0.45;;;;;;;;;;4974581;28;81874;-55
2024/02/13 17:12:28;;;;;;;1.90;0.90;;;;;;;;;;4976092;28;81952;-58
2024/02/13 17:14:54;;;;;;;2.30;2.10;;;;;;;;;;4977587;28;82063;-53
2024/02/13 17:17:19;;;;;;;1.10;0.57;;;;;;;;;;4977687;28;81910;-57
2024/02/13 17:19:45;;;;;;;0.40;0.40;;;;;;;;;;4975256;28;81632;-59
2024/02/13 17:22:11;;;;;;;0.50;0.47;;;;;;;;;;4977464;28;82070;-58
2024/02/13 17:24:38;;;;;;;1.23;0.73;;;;;;;;;;4980240;28;81963;-58
2024/02/13 17:27:08;;;;;;;0.20;0.20;;;;;;;;;;4975541;28;83258;-57
2024/02/13 17:29:33;;;;;;;0.70;0.70;;;;;;;;;;4979915;28;82165;-56
2024/02/13 17:31:59;;;;;;;5.80;0.43;;;;;;;;;;4979347;28;82003;-56
2024/02/13 17:34:25;;;;;;;1.02;0.65;;;;;;;;;;4979713;28;82509;-56
2024/02/13 17:36:50;;;;;;;0.80;0.80;;;;;;;;;;4981649;28;82427;-54
2024/02/13 17:39:15;;;;;;;0.70;0.70;;;;;;;;;;4982149;28;82310;-57
2024/02/13 17:41:40;;;;;;;0.47;0.27;;;;;;;;;;4980462;28;83550;-59
2024/02/13 17:44:06;;;;;;;0.37;0.37;;;;;;;;;;4981085;28;81899;-60
2024/02/13 17:46:31;;;;;;;0.40;0.40;;;;;;;;;;4980021;28;82245;-55
2024/02/13 17:48:56;;;;;;;0.70;0.70;;;;;;;;;;4977019;28;82577;-55
2024/02/13 17:51:21;;;;;;;0.93;0.57;;;;;;;;;;4980828;28;82991;-56
2024/02/13 17:53:46;;;;;;;1.40;0.80;;;;;;;;;;4980447;28;82601;-58
2024/02/13 17:56:12;;;;;;;0.23;0.20;;;;;;;;;;4978424;28;82957;-56
2024/02/13 17:58:37;;;;;;;0.60;0.60;;;;;;;;;;4978443;28;81941;-55
2024/02/13 18:01:03;;;;;;;0.80;0.80;;;;;;;;;;4979607;28;82562;-56
2024/02/13 18:03:28;;;;;;;0.75;0.60;;;;;;;;;;4981180;28;82549;-57
2024/02/13 18:05:53;;;;;;;1.77;0.53;;;;;;;;;;4982199;28;82430;-56
2024/02/13 18:08:18;;;;;;;0.70;0.20;;;;;;;;;;4979185;28;81766;-54
2024/02/13 18:10:44;;;;;;;0.50;0.20;;;;;;;;;;4979644;28;82152;-59
2024/02/13 18:13:11;;;;;;;0.50;0.30;;;;;;;;;;4980599;28;82458;-60
2024/02/13 18:15:37;;;;;;;0.10;0.10;;;;;;;;;;4980871;28;83492;-60
2024/02/13 18:18:02;;;;;;;0.75;0.30;;;;;;;;;;4979185;28;83409;-58
2024/02/13 18:20:28;;;;;;;0.50;0.50;;;;;;;;;;4979534;28;81774;-57
2024/02/13 18:22:54;;;;;;;0.10;0.10;;;;;;;;;;4978443;28;81832;-55
2024/02/13 18:25:21;;;;;;;0.00;0.00;;;;;;;;;;4980256;28;81962;-58
2024/02/13 18:27:46;;;;;;;0.30;0.30;;;;;;;;;;4982750;28;82128;-56
2024/02/13 18:30:12;;;;;;;0.10;0.10;;;;;;;;;;4980980;28;82276;-55
2024/02/13 18:32:37;;;;;;;0.53;0.27;;;;;;;;;;4976746;28;82655;-55
2024/02/13 18:35:02;;;;;;;0.33;0.33;;;;;;;;;;4981903;28;82604;-54
2024/02/13 18:37:29;;;;;;;0.40;0.30;;;;;;;;;;4976423;28;82497;-53
2024/02/13 18:39:55;;;;;;;0.50;0.40;;;;;;;;;;4976642;28;82792;-52
2024/02/13 18:42:20;;;;;;;0.10;0.10;;;;;;;;;;4979432;28;82605;-58
2024/02/13 18:44:46;;;;;;;0.40;0.22;;;;;;;;;;4979312;28;81823;-57
2024/02/13 18:47:12;;;;;;;0.27;0.27;;;;;;;;;;4980096;28;81963;-56
2024/02/13 18:49:38;;;;;;;0.32;0.32;;;;;;;;;;4979711;28;82653;-57
2024/02/13 18:52:04;;;;;;;7.40;0.60;;;;;;;;;;4977217;28;81875;-58
2024/02/13 18:54:29;;;;;;;0.20;0.20;;;;;;;;;;4978987;28;82746;-58
2024/02/13 18:56:54;;;;;;;1.90;0.83;;;;;;;;;;4981558;28;82511;-55
2024/02/13 18:59:19;;;;;;;0.10;0.10;;;;;;;;;;4978243;28;82166;-57
2024/02/13 19:01:45;;;;;;;1.08;0.55;;;;;;;;;;4978768;28;82481;-58
2024/02/13 19:04:11;;;;;;;0.17;0.10;;;;;;;;;;4979885;28;82775;-55
2024/02/13 19:06:37;;;;;;;0.40;0.40;;;;;;;;;;4978996;28;83382;-55
2024/02/13 19:09:05;;;;;;;0.80;0.52;;;;;;;;;;4978627;28;82253;-56
2024/02/13 19:11:30;;;;;;;0.25;0.25;;;;;;;;;;4977515;28;82150;-57
2024/02/13 19:13:56;;;;;;;0.37;0.10;;;;;;;;;;4977607;28;82247;-55
2024/02/13 19:16:22;;;;;;;0.20;0.20;;;;;;;;;;4980583;28;82255;-54
2024/02/13 19:18:48;;;;;;;0.60;0.40;;;;;;;;;;4978280;28;82252;-56
2024/02/13 19:21:13;;;;;;;0.60;0.30;;;;;;;;;;4978774;28;81661;-57
2024/02/13 19:23:39;;;;;;;0.30;0.20;;;;;;;;;;4979886;28;82145;-56
2024/02/13 19:26:04;;;;;;;0.10;0.10;;;;;;;;;;4979989;28;82867;-56
2024/02/13 19:28:29;;;;;;;0.20;0.20;;;;;;;;;;4978787;28;83985;-57
2024/02/13 19:30:55;;;;;;;0.30;0.30;;;;;;;;;;4979714;28;82711;-56
2024/02/13 19:33:20;;;;;;;0.10;0.10;;;;;;;;;;4982594;28;82387;-53
2024/02/13 19:35:45;;;;;;;0.25;0.25;;;;;;;;;;4977640;28;82120;-59
2024/02/13 19:38:13;;;;;;;0.43;0.23;;;;;;;;;;4979297;28;82147;-55
2024/02/13 19:40:40;;;;;;;0.00;0.00;;;;;;;;;;4979033;28;82556;-58
2024/02/13 19:43:05;;;;;;;0.20;0.20;;;;;;;;;;4979884;28;82051;-54
2024/02/13 19:45:30;;;;;;;0.50;0.20;;;;;;;;;;4978605;28;81572;-56
2024/02/13 19:47:55;;;;;;;0.10;0.10;;;;;;;;;;4977089;28;83426;-57
2024/02/13 19:50:21;;;;;;;1.20;0.50;;;;;;;;;;4969171;28;82915;-55
2024/02/13 19:52:46;;;;;;;0.40;0.20;;;;;;;;;;4982221;28;83485;-58
2024/02/13 19:55:11;;;;;;;1.00;0.80;;;;;;;;;;4979396;28;82503;-55
2024/02/13 19:57:37;;;;;;;0.20;0.20;;;;;;;;;;4977859;28;83465;-52
2024/02/13 20:00:03;;;;;;;0.80;0.30;;;;;;;;;;4977076;28;82230;-57
2024/02/13 20:02:28;;;;;;;0.70;0.28;;;;;;;;;;4977983;28;81957;-55
2024/02/13 20:04:57;;;;;;;0.10;0.10;;;;;;;;;;4976181;28;82047;-53
2024/02/13 20:07:22;;;;;;;0.10;0.10;;;;;;;;;;4978593;28;83103;-58
2024/02/13 20:09:47;;;;;;;0.10;0.10;;;;;;;;;;4975185;28;81887;-55
2024/02/13 20:12:12;;;;;;;0.50;0.23;;;;;;;;;;4979628;28;82017;-55
2024/02/13 20:14:38;;;;;;;0.20;0.10;;;;;;;;;;4981340;28;82483;-56
2024/02/13 20:17:03;;;;;;;0.67;0.30;;;;;;;;;;4978259;28;83309;-57
2024/02/13 20:19:31;;;;;;;0.10;0.10;;;;;;;;;;4979351;28;82357;-58
2024/02/13 20:21:57;;;;;;;0.55;0.10;;;;;;;;;;4978284;28;82022;-56
2024/02/13 20:24:24;;;;;;;0.20;0.20;;;;;;;;;;4979194;28;83059;-58
2024/02/13 20:26:50;;;;;;;6.50;0.70;;;;;;;;;;4978805;28;82824;-57
2024/02/13 20:29:15;;;;;;;0.30;0.30;;;;;;;;;;4978565;28;82561;-58
2024/02/13 20:31:40;;;;;;;1.60;0.53;;;;;;;;;;4979436;28;82291;-58
2024/02/13 20:34:05;;;;;;;1.07;0.93;;;;;;;;;;4979470;28;81154;-57
2024/02/13 20:36:30;;;;;;;0.53;0.23;;;;;;;;;;4979752;28;81954;-58
2024/02/13 20:39:14;;;;;;;1.20;0.30;;;;;;;;;;4977889;28;82561;-57
2024/02/13 20:41:42;;;;;;;0.20;0.20;;;;;;;;;;4977494;28;82833;-58
2024/02/13 20:44:09;;;;;;;0.70;0.50;;;;;;;;;;4975502;28;82231;-58
2024/02/13 20:46:34;;;;;;;0.00;0.00;;;;;;;;;;4979039;28;82333;-58
2024/02/13 20:49:03;;;;;;;0.93;0.60;;;;;;;;;;4979491;28;82049;-58
2024/02/13 20:51:31;;;;;;;3.00;0.50;;;;;;;;;;4975332;28;82039;-58
2024/02/13 20:53:57;;;;;;;3.30;1.20;;;;;;;;;;4976492;28;82903;-58
2024/02/13 20:56:22;;;;;;;0.60;0.60;;;;;;;;;;4978048;28;82002;-59
2024/02/13 20:58:48;;;;;;;0.40;0.40;;;;;;;;;;4981427;28;81577;-57
2024/02/13 21:01:13;;;;;;;0.55;0.45;;;;;;;;;;4977183;28;82006;-58
2024/02/13 21:03:39;;;;;;;2.03;0.37;;;;;;;;;;4979419;28;82780;-58
2024/02/13 21:06:05;;;;;;;0.80;0.40;;;;;;;;;;4976369;28;83808;-59
2024/02/13 21:08:30;;;;;;;4.97;4.15;;;;;;;;;;4977475;28;82959;-57
2024/02/13 21:10:55;;;;;;;8.87;5.40;;;;;;;;;;4977031;28;82282;-58
2024/02/13 21:13:20;;;;;;;4.82;4.30;;;;;;;;;;4978331;28;82048;-58
2024/02/13 21:15:46;;;;;;;6.50;3.80;;;;;;;;;;4978539;28;82560;-57
2024/02/13 21:18:11;;;;;;;13.50;4.43;;;;;;;;;;4977274;28;83078;-58
2024/02/13 21:20:44;;;;;;;4.77;2.77;;;;;;;;;;4981738;28;82017;-59
2024/02/13 21:25:57;;;;;;;3.28;2.97;;;;;;;;;;4978954;28;82149;-57
2024/02/13 21:28:24;;;;;;;10.23;3.47;;;;;;;;;;4977221;28;82891;-59
2024/02/13 21:30:50;;;;;;;4.15;3.35;;;;;;;;;;4974992;28;82912;-58
2024/02/13 21:33:15;;;;;;;9.43;3.05;;;;;;;;;;4978279;28;83598;-57
2024/02/13 21:35:40;;;;;;;4.87;3.00;;;;;;;;;;4971515;28;82014;-59
2024/02/13 21:38:05;;;;;;;4.30;2.60;;;;;;;;;;4978076;28;82366;-58
2024/02/13 21:40:32;;;;;;;7.17;2.67;;;;;;;;;;4974290;28;81961;-58
2024/02/13 21:42:58;;;;;;;1.85;1.75;;;;;;;;;;4981369;28;81834;-58
2024/02/13 21:45:26;;;;;;;2.55;2.35;;;;;;;;;;4975829;28;81822;-58
2024/02/13 21:47:51;;;;;;;2.33;2.22;;;;;;;;;;4977799;28;81284;-56
2024/02/13 21:50:17;;;;;;;8.38;3.22;;;;;;;;;;4973789;28;83328;-58
2024/02/13 21:52:43;;;;;;;4.95;2.10;;;;;;;;;;4975998;28;83834;-52
2024/02/13 21:55:08;;;;;;;1.93;1.73;;;;;;;;;;4977582;28;82965;-55
2024/02/13 21:57:33;;;;;;;4.10;1.47;;;;;;;;;;4977352;28;83766;-52
2024/02/13 22:00:02;;;;;;;3.10;1.20;;;;;;;;;;4977963;28;81977;-55
2024/02/13 22:02:28;;;;;;;1.83;1.57;;;;;;;;;;4979081;28;83857;-55
2024/02/13 22:04:53;;;;;;;5.50;1.60;;;;;;;;;;4978143;28;83303;-58
2024/02/13 22:07:18;;;;;;;2.93;1.20;;;;;;;;;;4978785;28;81981;-58
2024/02/13 22:09:43;;;;;;;1.93;1.13;;;;;;;;;;4977656;28;82245;-57
2024/02/13 22:12:08;;;;;;;1.60;1.50;;;;;;;;;;4975763;28;81671;-57
2024/02/13 22:14:34;;;;;;;0.80;0.80;;;;;;;;;;4980304;28;82115;-57
2024/02/13 22:16:59;;;;;;;1.07;0.80;;;;;;;;;;4982277;28;82138;-54
2024/02/13 22:19:24;;;;;;;1.77;1.27;;;;;;;;;;4978866;28;82929;-56
2024/02/13 22:21:49;;;;;;;0.80;0.73;;;;;;;;;;4981090;28;82402;-57
2024/02/13 22:24:15;;;;;;;3.20;0.80;;;;;;;;;;4980247;28;82381;-57
2024/02/13 22:26:41;;;;;;;2.17;1.00;;;;;;;;;;4978536;28;82040;-53
2024/02/13 22:29:06;;;;;;;1.80;1.00;;;;;;;;;;4979957;28;82380;-57
2024/02/13 22:31:32;;;;;;;4.23;1.17;;;;;;;;;;4979898;28;81932;-57
2024/02/13 22:33:57;;;;;;;1.20;0.63;;;;;;;;;;4981465;28;81984;-57
2024/02/13 22:36:23;;;;;;;1.43;0.60;;;;;;;;;;4981295;28;81166;-55
2024/02/13 22:38:48;;;;;;;1.48;0.70;;;;;;;;;;4977019;28;85045;-54
2024/02/13 22:41:13;;;;;;;2.07;0.67;;;;;;;;;;4978897;28;82186;-56
2024/02/13 22:43:39;;;;;;;1.77;1.10;;;;;;;;;;4978184;28;83054;-56
2024/02/13 22:46:04;;;;;;;3.00;2.20;;;;;;;;;;4978609;28;82230;-53
2024/02/13 22:48:29;;;;;;;1.10;0.90;;;;;;;;;;4980011;28;82362;-56
2024/02/13 22:50:55;;;;;;;2.07;0.73;;;;;;;;;;4979714;28;82660;-55
2024/02/13 22:53:20;;;;;;;2.00;0.70;;;;;;;;;;4978316;28;81974;-54
2024/02/13 22:55:45;;;;;;;1.23;0.97;;;;;;;;;;4979875;28;83381;-57
2024/02/13 22:58:10;;;;;;;0.90;0.90;;;;;;;;;;4980046;28;82106;-56
2024/02/13 23:00:48;;;;;;;0.93;0.93;;;;;;;;;;4975931;28;81626;-55
2024/02/13 23:03:16;;;;;;;1.02;0.43;;;;;;;;;;4981119;28;81929;-56
2024/02/13 23:05:45;;;;;;;0.82;0.77;;;;;;;;;;4981103;28;82652;-56
2024/02/13 23:08:11;;;;;;;0.40;0.40;;;;;;;;;;4979717;28;82935;-55
2024/02/13 23:10:37;;;;;;;1.95;0.30;;;;;;;;;;4979265;28;81888;-55
2024/02/13 23:13:04;;;;;;;1.08;0.95;;;;;;;;;;4977786;28;82690;-55
2024/02/13 23:15:29;;;;;;;2.00;0.88;;;;;;;;;;4977797;28;82427;-55
2024/02/13 23:17:54;;;;;;;1.37;0.87;;;;;;;;;;4978244;28;83094;-55
2024/02/13 23:20:21;;;;;;;2.57;0.63;;;;;;;;;;4979440;28;82218;-52
2024/02/13 23:22:50;;;;;;;0.43;0.43;;;;;;;;;;4980243;28;82448;-56
2024/02/13 23:25:15;;;;;;;1.40;1.10;;;;;;;;;;4981083;28;81792;-56
2024/02/13 23:27:42;;;;;;;1.33;0.50;;;;;;;;;;4978373;28;82114;-52
2024/02/13 23:30:08;;;;;;;0.63;0.52;;;;;;;;;;4982270;28;82009;-54
2024/02/13 23:32:33;;;;;;;0.40;0.40;;;;;;;;;;4976860;28;82942;-55
2024/02/13 23:34:58;;;;;;;3.30;0.30;;;;;;;;;;4979337;28;83642;-55
2024/02/13 23:37:24;;;;;;;2.30;0.60;;;;;;;;;;4979499;28;82168;-56
2024/02/13 23:39:49;;;;;;;2.03;0.90;;;;;;;;;;4978950;28;82838;-57
2024/02/13 23:42:14;;;;;;;1.13;1.03;;;;;;;;;;4978570;28;81953;-56
2024/02/13 23:44:40;;;;;;;1.10;0.77;;;;;;;;;;4979918;28;81956;-56
2024/02/13 23:47:05;;;;;;;1.50;0.40;;;;;;;;;;4977173;28;82445;-53
2024/02/13 23:49:31;;;;;;;0.60;0.45;;;;;;;;;;4982656;28;81697;-57
2024/02/13 23:51:56;;;;;;;3.30;0.43;;;;;;;;;;4975159;28;81907;-56